sensor_id;sensor_type;location;lat;lon;timestamp;P1;durP1;ratioP1;P2;durP2;ratioP2
45806;SDS011;31507;51.494;7.518;2023-04-15T00:02:13;24.85;;;13.98;;
45806;SDS011;31507;51.494;7.518;2023-04-15T00:04:40;19.55;;;12.93;;
45806;SDS011;31507;51.494;7.518;2023-04-15T00:07:06;20.05;;;13.07;;
45806;SDS011;31507;51.494;7.518;2023-04-15T00:09:32;21.50;;;12.43;;
45806;SDS011;31507;51.494;7.518;2023-04-15T00:11:58;18.20;;;12.38;;
45806;SDS011;31507;51.494;7.518;2023-04-15T00:14:23;26.20;;;14.50;;
45806;SDS011;31507;51.494;7.518;2023-04-15T00:16:50;18.95;;;13.35;;
45806;SDS011;31507;51.494;7.518;2023-04-15T00:19:20;21.73;;;14.40;;
45806;SDS011;31507;51.494;7.518;2023-04-15T00:21:45;21.92;;;14.57;;
45806;SDS011;31507;51.494;7.518;2023-04-15T00:24:11;20.58;;;14.77;;
45806;SDS011;31507;51.494;7.518;2023-04-15T00:26:37;21.40;;;14.45;;
45806;SDS011;31507;51.494;7.518;2023-04-15T00:29:03;21.75;;;14.57;;
45806;SDS011;31507;51.494;7.518;2023-04-15T00:31:30;23.30;;;14.65;;
45806;SDS011;31507;51.494;7.518;2023-04-15T00:33:56;26.25;;;15.82;;
45806;SDS011;31507;51.494;7.518;2023-04-15T00:36:22;19.67;;;15.60;;
45806;SDS011;31507;51.494;7.518;2023-04-15T00:38:48;20.80;;;15.05;;
45806;SDS011;31507;51.494;7.518;2023-04-15T00:41:14;22.63;;;15.70;;
45806;SDS011;31507;51.494;7.518;2023-04-15T00:43:39;20.63;;;15.10;;
45806;SDS011;31507;51.494;7.518;2023-04-15T00:46:06;24.40;;;15.23;;
45806;SDS011;31507;51.494;7.518;2023-04-15T00:48:31;24.42;;;14.25;;
45806;SDS011;31507;51.494;7.518;2023-04-15T00:50:57;22.98;;;15.52;;
45806;SDS011;31507;51.494;7.518;2023-04-15T00:53:23;22.42;;;13.80;;
45806;SDS011;31507;51.494;7.518;2023-04-15T00:55:48;22.85;;;14.23;;
45806;SDS011;31507;51.494;7.518;2023-04-15T00:58:15;23.08;;;14.65;;
45806;SDS011;31507;51.494;7.518;2023-04-15T01:00:41;19.20;;;14.20;;
45806;SDS011;31507;51.494;7.518;2023-04-15T01:03:07;19.02;;;14.38;;
45806;SDS011;31507;51.494;7.518;2023-04-15T01:05:33;21.77;;;14.88;;
45806;SDS011;31507;51.494;7.518;2023-04-15T01:08:01;20.17;;;14.15;;
45806;SDS011;31507;51.494;7.518;2023-04-15T01:10:27;20.45;;;14.65;;
45806;SDS011;31507;51.494;7.518;2023-04-15T01:12:53;24.90;;;15.02;;
45806;SDS011;31507;51.494;7.518;2023-04-15T01:15:19;25.45;;;15.90;;
45806;SDS011;31507;51.494;7.518;2023-04-15T01:17:45;21.77;;;14.73;;
45806;SDS011;31507;51.494;7.518;2023-04-15T01:20:12;24.88;;;15.60;;
45806;SDS011;31507;51.494;7.518;2023-04-15T01:22:37;21.27;;;15.63;;
45806;SDS011;31507;51.494;7.518;2023-04-15T01:25:05;23.20;;;15.00;;
45806;SDS011;31507;51.494;7.518;2023-04-15T01:27:34;24.45;;;17.33;;
45806;SDS011;31507;51.494;7.518;2023-04-15T01:30:02;24.60;;;17.17;;
45806;SDS011;31507;51.494;7.518;2023-04-15T01:32:29;26.00;;;16.70;;
45806;SDS011;31507;51.494;7.518;2023-04-15T01:34:55;30.23;;;17.83;;
45806;SDS011;31507;51.494;7.518;2023-04-15T01:37:21;28.27;;;16.25;;
45806;SDS011;31507;51.494;7.518;2023-04-15T01:39:46;27.20;;;17.25;;
45806;SDS011;31507;51.494;7.518;2023-04-15T01:42:12;29.70;;;19.30;;
45806;SDS011;31507;51.494;7.518;2023-04-15T01:44:38;30.55;;;18.80;;
45806;SDS011;31507;51.494;7.518;2023-04-15T01:47:03;29.00;;;19.80;;
45806;SDS011;31507;51.494;7.518;2023-04-15T01:49:29;37.55;;;21.55;;
45806;SDS011;31507;51.494;7.518;2023-04-15T01:51:55;30.35;;;21.50;;
45806;SDS011;31507;51.494;7.518;2023-04-15T01:54:20;39.30;;;22.45;;
45806;SDS011;31507;51.494;7.518;2023-04-15T01:56:46;36.53;;;24.65;;
45806;SDS011;31507;51.494;7.518;2023-04-15T01:59:12;41.28;;;24.30;;
45806;SDS011;31507;51.494;7.518;2023-04-15T02:01:37;40.78;;;26.40;;
45806;SDS011;31507;51.494;7.518;2023-04-15T02:04:03;46.92;;;28.17;;
45806;SDS011;31507;51.494;7.518;2023-04-15T02:06:29;37.80;;;26.20;;
45806;SDS011;31507;51.494;7.518;2023-04-15T02:08:55;47.22;;;27.70;;
45806;SDS011;31507;51.494;7.518;2023-04-15T02:11:21;42.38;;;27.02;;
45806;SDS011;31507;51.494;7.518;2023-04-15T02:13:47;40.78;;;25.17;;
45806;SDS011;31507;51.494;7.518;2023-04-15T02:16:16;34.72;;;24.05;;
45806;SDS011;31507;51.494;7.518;2023-04-15T02:18:43;36.38;;;26.33;;
45806;SDS011;31507;51.494;7.518;2023-04-15T02:21:10;42.85;;;28.10;;
45806;SDS011;31507;51.494;7.518;2023-04-15T02:23:36;47.40;;;29.15;;
45806;SDS011;31507;51.494;7.518;2023-04-15T02:26:02;42.03;;;28.52;;
45806;SDS011;31507;51.494;7.518;2023-04-15T02:28:27;53.10;;;32.58;;
45806;SDS011;31507;51.494;7.518;2023-04-15T02:30:53;48.75;;;31.25;;
45806;SDS011;31507;51.494;7.518;2023-04-15T02:33:21;51.10;;;31.98;;
45806;SDS011;31507;51.494;7.518;2023-04-15T02:35:47;53.10;;;33.85;;
45806;SDS011;31507;51.494;7.518;2023-04-15T02:38:12;58.22;;;34.28;;
45806;SDS011;31507;51.494;7.518;2023-04-15T02:40:40;55.35;;;34.80;;
45806;SDS011;31507;51.494;7.518;2023-04-15T02:43:06;55.75;;;34.55;;
45806;SDS011;31507;51.494;7.518;2023-04-15T02:45:32;48.53;;;33.30;;
45806;SDS011;31507;51.494;7.518;2023-04-15T02:47:57;52.85;;;33.42;;
45806;SDS011;31507;51.494;7.518;2023-04-15T02:50:23;54.92;;;34.53;;
45806;SDS011;31507;51.494;7.518;2023-04-15T02:52:49;57.85;;;35.50;;
45806;SDS011;31507;51.494;7.518;2023-04-15T02:55:16;60.92;;;37.80;;
45806;SDS011;31507;51.494;7.518;2023-04-15T02:57:42;63.38;;;37.47;;
45806;SDS011;31507;51.494;7.518;2023-04-15T03:00:08;60.88;;;39.10;;
45806;SDS011;31507;51.494;7.518;2023-04-15T03:02:36;60.10;;;38.55;;
45806;SDS011;31507;51.494;7.518;2023-04-15T03:05:02;65.88;;;40.83;;
45806;SDS011;31507;51.494;7.518;2023-04-15T03:07:29;66.35;;;40.40;;
45806;SDS011;31507;51.494;7.518;2023-04-15T03:09:55;68.25;;;39.13;;
45806;SDS011;31507;51.494;7.518;2023-04-15T03:12:21;64.03;;;41.88;;
45806;SDS011;31507;51.494;7.518;2023-04-15T03:14:47;62.47;;;41.10;;
45806;SDS011;31507;51.494;7.518;2023-04-15T03:17:13;62.63;;;37.70;;
45806;SDS011;31507;51.494;7.518;2023-04-15T03:19:38;52.58;;;35.20;;
45806;SDS011;31507;51.494;7.518;2023-04-15T03:22:04;49.78;;;34.47;;
45806;SDS011;31507;51.494;7.518;2023-04-15T03:24:30;50.90;;;33.50;;
45806;SDS011;31507;51.494;7.518;2023-04-15T03:26:55;45.65;;;31.23;;
45806;SDS011;31507;51.494;7.518;2023-04-15T03:29:22;53.83;;;30.70;;
45806;SDS011;31507;51.494;7.518;2023-04-15T03:31:47;46.58;;;31.08;;
45806;SDS011;31507;51.494;7.518;2023-04-15T03:34:13;53.90;;;31.02;;
45806;SDS011;31507;51.494;7.518;2023-04-15T03:36:39;52.63;;;32.65;;
45806;SDS011;31507;51.494;7.518;2023-04-15T03:39:04;47.80;;;30.55;;
45806;SDS011;31507;51.494;7.518;2023-04-15T03:41:30;55.00;;;33.33;;
45806;SDS011;31507;51.494;7.518;2023-04-15T03:43:56;50.08;;;31.83;;
45806;SDS011;31507;51.494;7.518;2023-04-15T03:46:22;48.45;;;30.95;;
45806;SDS011;31507;51.494;7.518;2023-04-15T03:48:48;43.47;;;30.27;;
45806;SDS011;31507;51.494;7.518;2023-04-15T03:51:13;46.33;;;31.77;;
45806;SDS011;31507;51.494;7.518;2023-04-15T03:53:39;49.38;;;32.80;;
45806;SDS011;31507;51.494;7.518;2023-04-15T03:56:05;45.05;;;32.90;;
45806;SDS011;31507;51.494;7.518;2023-04-15T03:58:30;48.70;;;33.13;;
45806;SDS011;31507;51.494;7.518;2023-04-15T04:00:56;45.42;;;31.65;;
45806;SDS011;31507;51.494;7.518;2023-04-15T04:03:22;50.35;;;32.60;;
45806;SDS011;31507;51.494;7.518;2023-04-15T04:05:47;46.35;;;32.03;;
45806;SDS011;31507;51.494;7.518;2023-04-15T04:08:13;44.55;;;30.30;;
45806;SDS011;31507;51.494;7.518;2023-04-15T04:10:40;39.45;;;30.00;;
45806;SDS011;31507;51.494;7.518;2023-04-15T04:13:06;44.90;;;29.00;;
45806;SDS011;31507;51.494;7.518;2023-04-15T04:15:31;42.60;;;29.98;;
45806;SDS011;31507;51.494;7.518;2023-04-15T04:17:57;37.20;;;26.90;;
45806;SDS011;31507;51.494;7.518;2023-04-15T04:20:23;46.42;;;28.20;;
45806;SDS011;31507;51.494;7.518;2023-04-15T04:22:49;39.35;;;27.73;;
45806;SDS011;31507;51.494;7.518;2023-04-15T04:25:14;49.33;;;31.55;;
45806;SDS011;31507;51.494;7.518;2023-04-15T04:27:40;46.63;;;31.08;;
45806;SDS011;31507;51.494;7.518;2023-04-15T04:30:06;49.38;;;31.20;;
45806;SDS011;31507;51.494;7.518;2023-04-15T04:32:32;52.08;;;31.23;;
45806;SDS011;31507;51.494;7.518;2023-04-15T04:34:58;55.20;;;32.60;;
45806;SDS011;31507;51.494;7.518;2023-04-15T04:37:23;53.50;;;34.80;;
45806;SDS011;31507;51.494;7.518;2023-04-15T04:39:49;54.47;;;34.97;;
45806;SDS011;31507;51.494;7.518;2023-04-15T04:42:15;50.83;;;33.90;;
45806;SDS011;31507;51.494;7.518;2023-04-15T04:44:40;58.70;;;34.88;;
45806;SDS011;31507;51.494;7.518;2023-04-15T04:47:06;71.47;;;35.22;;
45806;SDS011;31507;51.494;7.518;2023-04-15T04:49:32;56.63;;;35.08;;
45806;SDS011;31507;51.494;7.518;2023-04-15T04:51:58;57.30;;;36.40;;
45806;SDS011;31507;51.494;7.518;2023-04-15T04:54:23;67.82;;;39.85;;
45806;SDS011;31507;51.494;7.518;2023-04-15T04:56:49;72.20;;;39.53;;
45806;SDS011;31507;51.494;7.518;2023-04-15T04:59:15;70.20;;;39.28;;
45806;SDS011;31507;51.494;7.518;2023-04-15T05:01:41;69.68;;;39.33;;
45806;SDS011;31507;51.494;7.518;2023-04-15T05:04:07;72.25;;;40.33;;
45806;SDS011;31507;51.494;7.518;2023-04-15T05:06:32;73.28;;;41.88;;
45806;SDS011;31507;51.494;7.518;2023-04-15T05:09:00;77.57;;;43.50;;
45806;SDS011;31507;51.494;7.518;2023-04-15T05:11:27;80.13;;;42.95;;
45806;SDS011;31507;51.494;7.518;2023-04-15T05:13:55;84.60;;;44.28;;
45806;SDS011;31507;51.494;7.518;2023-04-15T05:16:22;91.78;;;48.03;;
45806;SDS011;31507;51.494;7.518;2023-04-15T05:18:47;89.45;;;47.38;;
45806;SDS011;31507;51.494;7.518;2023-04-15T05:21:13;88.45;;;50.15;;
45806;SDS011;31507;51.494;7.518;2023-04-15T05:23:39;95.80;;;52.33;;
45806;SDS011;31507;51.494;7.518;2023-04-15T05:26:05;99.45;;;53.60;;
45806;SDS011;31507;51.494;7.518;2023-04-15T05:28:30;104.60;;;55.95;;
45806;SDS011;31507;51.494;7.518;2023-04-15T05:30:56;101.90;;;56.58;;
45806;SDS011;31507;51.494;7.518;2023-04-15T05:33:22;98.25;;;54.08;;
45806;SDS011;31507;51.494;7.518;2023-04-15T05:35:47;103.40;;;55.42;;
45806;SDS011;31507;51.494;7.518;2023-04-15T05:38:13;99.47;;;54.85;;
45806;SDS011;31507;51.494;7.518;2023-04-15T05:40:38;97.70;;;53.15;;
45806;SDS011;31507;51.494;7.518;2023-04-15T05:43:04;98.22;;;54.10;;
45806;SDS011;31507;51.494;7.518;2023-04-15T05:45:30;94.88;;;55.85;;
45806;SDS011;31507;51.494;7.518;2023-04-15T05:47:55;100.53;;;54.92;;
45806;SDS011;31507;51.494;7.518;2023-04-15T05:50:21;90.13;;;52.10;;
45806;SDS011;31507;51.494;7.518;2023-04-15T05:52:47;82.85;;;47.97;;
45806;SDS011;31507;51.494;7.518;2023-04-15T05:55:12;77.00;;;44.53;;
45806;SDS011;31507;51.494;7.518;2023-04-15T05:57:38;80.25;;;46.42;;
45806;SDS011;31507;51.494;7.518;2023-04-15T06:00:04;70.03;;;44.22;;
45806;SDS011;31507;51.494;7.518;2023-04-15T06:02:30;61.13;;;41.67;;
45806;SDS011;31507;51.494;7.518;2023-04-15T06:04:56;62.03;;;40.20;;
45806;SDS011;31507;51.494;7.518;2023-04-15T06:07:22;64.95;;;39.78;;
45806;SDS011;31507;51.494;7.518;2023-04-15T06:09:48;61.95;;;38.50;;
45806;SDS011;31507;51.494;7.518;2023-04-15T06:12:14;55.50;;;38.78;;
45806;SDS011;31507;51.494;7.518;2023-04-15T06:14:40;54.70;;;33.75;;
45806;SDS011;31507;51.494;7.518;2023-04-15T06:17:06;45.95;;;32.40;;
45806;SDS011;31507;51.494;7.518;2023-04-15T06:19:32;47.58;;;32.17;;
45806;SDS011;31507;51.494;7.518;2023-04-15T06:22:00;43.53;;;29.80;;
45806;SDS011;31507;51.494;7.518;2023-04-15T06:24:26;37.72;;;26.75;;
45806;SDS011;31507;51.494;7.518;2023-04-15T06:26:52;35.10;;;24.10;;
45806;SDS011;31507;51.494;7.518;2023-04-15T06:29:18;29.77;;;21.63;;
45806;SDS011;31507;51.494;7.518;2023-04-15T06:31:43;25.35;;;20.75;;
45806;SDS011;31507;51.494;7.518;2023-04-15T06:34:11;28.90;;;21.13;;
45806;SDS011;31507;51.494;7.518;2023-04-15T06:36:36;25.10;;;20.15;;
45806;SDS011;31507;51.494;7.518;2023-04-15T06:39:02;24.52;;;18.15;;
45806;SDS011;31507;51.494;7.518;2023-04-15T06:41:28;25.40;;;18.40;;
45806;SDS011;31507;51.494;7.518;2023-04-15T06:43:54;24.33;;;17.98;;
45806;SDS011;31507;51.494;7.518;2023-04-15T06:46:19;24.80;;;17.20;;
45806;SDS011;31507;51.494;7.518;2023-04-15T06:48:45;24.00;;;18.15;;
45806;SDS011;31507;51.494;7.518;2023-04-15T06:51:11;23.85;;;18.48;;
45806;SDS011;31507;51.494;7.518;2023-04-15T06:53:39;21.85;;;17.83;;
45806;SDS011;31507;51.494;7.518;2023-04-15T06:56:09;24.92;;;19.50;;
45806;SDS011;31507;51.494;7.518;2023-04-15T06:58:34;24.70;;;19.52;;
45806;SDS011;31507;51.494;7.518;2023-04-15T07:01:00;27.48;;;19.38;;
45806;SDS011;31507;51.494;7.518;2023-04-15T07:03:27;24.83;;;18.05;;
45806;SDS011;31507;51.494;7.518;2023-04-15T07:05:53;24.58;;;18.40;;
45806;SDS011;31507;51.494;7.518;2023-04-15T07:08:18;23.17;;;16.80;;
45806;SDS011;31507;51.494;7.518;2023-04-15T07:10:45;23.98;;;16.63;;
45806;SDS011;31507;51.494;7.518;2023-04-15T07:13:11;22.10;;;15.38;;
45806;SDS011;31507;51.494;7.518;2023-04-15T07:15:37;22.88;;;16.05;;
45806;SDS011;31507;51.494;7.518;2023-04-15T07:18:03;20.25;;;14.48;;
45806;SDS011;31507;51.494;7.518;2023-04-15T07:20:29;16.45;;;13.63;;
45806;SDS011;31507;51.494;7.518;2023-04-15T07:22:54;16.70;;;14.23;;
45806;SDS011;31507;51.494;7.518;2023-04-15T07:25:20;18.67;;;13.85;;
45806;SDS011;31507;51.494;7.518;2023-04-15T07:27:46;16.58;;;13.32;;
45806;SDS011;31507;51.494;7.518;2023-04-15T07:30:11;20.75;;;12.98;;
45806;SDS011;31507;51.494;7.518;2023-04-15T07:32:37;16.42;;;13.13;;
45806;SDS011;31507;51.494;7.518;2023-04-15T07:35:03;18.10;;;12.60;;
45806;SDS011;31507;51.494;7.518;2023-04-15T07:37:29;24.30;;;14.00;;
45806;SDS011;31507;51.494;7.518;2023-04-15T07:39:55;19.35;;;13.00;;
45806;SDS011;31507;51.494;7.518;2023-04-15T07:42:21;19.10;;;12.75;;
45806;SDS011;31507;51.494;7.518;2023-04-15T07:44:46;21.80;;;14.68;;
45806;SDS011;31507;51.494;7.518;2023-04-15T07:47:12;19.85;;;13.00;;
45806;SDS011;31507;51.494;7.518;2023-04-15T07:49:38;22.75;;;12.85;;
45806;SDS011;31507;51.494;7.518;2023-04-15T07:52:03;21.48;;;12.55;;
45806;SDS011;31507;51.494;7.518;2023-04-15T07:54:29;17.10;;;12.57;;
45806;SDS011;31507;51.494;7.518;2023-04-15T07:56:55;22.30;;;12.88;;
45806;SDS011;31507;51.494;7.518;2023-04-15T07:59:21;14.52;;;11.70;;
45806;SDS011;31507;51.494;7.518;2023-04-15T08:01:47;18.58;;;13.02;;
45806;SDS011;31507;51.494;7.518;2023-04-15T08:04:12;15.30;;;12.02;;
45806;SDS011;31507;51.494;7.518;2023-04-15T08:06:38;12.90;;;10.75;;
45806;SDS011;31507;51.494;7.518;2023-04-15T08:09:04;14.98;;;11.23;;
45806;SDS011;31507;51.494;7.518;2023-04-15T08:11:31;13.57;;;10.10;;
45806;SDS011;31507;51.494;7.518;2023-04-15T08:13:56;16.45;;;11.27;;
45806;SDS011;31507;51.494;7.518;2023-04-15T08:16:23;11.77;;;9.52;;
45806;SDS011;31507;51.494;7.518;2023-04-15T08:18:53;12.85;;;9.52;;
45806;SDS011;31507;51.494;7.518;2023-04-15T08:21:19;10.77;;;9.40;;
45806;SDS011;31507;51.494;7.518;2023-04-15T08:23:46;12.30;;;8.90;;
45806;SDS011;31507;51.494;7.518;2023-04-15T08:26:14;10.55;;;9.27;;
45806;SDS011;31507;51.494;7.518;2023-04-15T08:28:40;12.32;;;8.60;;
45806;SDS011;31507;51.494;7.518;2023-04-15T08:31:06;10.63;;;8.68;;
45806;SDS011;31507;51.494;7.518;2023-04-15T08:33:33;8.55;;;7.43;;
45806;SDS011;31507;51.494;7.518;2023-04-15T08:35:59;11.57;;;8.65;;
45806;SDS011;31507;51.494;7.518;2023-04-15T08:38:24;10.85;;;7.40;;
45806;SDS011;31507;51.494;7.518;2023-04-15T08:40:50;9.13;;;7.03;;
45806;SDS011;31507;51.494;7.518;2023-04-15T08:43:23;9.88;;;7.10;;
45806;SDS011;31507;51.494;7.518;2023-04-15T08:45:52;8.25;;;7.30;;
45806;SDS011;31507;51.494;7.518;2023-04-15T08:48:19;9.23;;;7.22;;
45806;SDS011;31507;51.494;7.518;2023-04-15T08:50:46;7.85;;;7.00;;
45806;SDS011;31507;51.494;7.518;2023-04-15T08:53:12;9.80;;;8.30;;
45806;SDS011;31507;51.494;7.518;2023-04-15T08:55:41;9.60;;;8.15;;
45806;SDS011;31507;51.494;7.518;2023-04-15T08:58:11;9.27;;;7.47;;
45806;SDS011;31507;51.494;7.518;2023-04-15T09:00:38;11.00;;;7.22;;
45806;SDS011;31507;51.494;7.518;2023-04-15T09:03:06;11.57;;;8.02;;
45806;SDS011;31507;51.494;7.518;2023-04-15T09:05:33;10.48;;;8.45;;
45806;SDS011;31507;51.494;7.518;2023-04-15T09:08:01;10.85;;;9.13;;
45806;SDS011;31507;51.494;7.518;2023-04-15T09:10:28;11.52;;;8.00;;
45806;SDS011;31507;51.494;7.518;2023-04-15T09:12:54;10.05;;;7.82;;
45806;SDS011;31507;51.494;7.518;2023-04-15T09:15:21;11.75;;;8.23;;
45806;SDS011;31507;51.494;7.518;2023-04-15T09:17:50;8.45;;;7.22;;
45806;SDS011;31507;51.494;7.518;2023-04-15T09:20:16;8.65;;;7.45;;
45806;SDS011;31507;51.494;7.518;2023-04-15T09:22:45;10.40;;;7.82;;
45806;SDS011;31507;51.494;7.518;2023-04-15T09:25:24;8.95;;;8.05;;
45806;SDS011;31507;51.494;7.518;2023-04-15T09:27:54;10.00;;;8.32;;
45806;SDS011;31507;51.494;7.518;2023-04-15T09:30:25;9.23;;;8.20;;
45806;SDS011;31507;51.494;7.518;2023-04-15T09:32:56;8.73;;;7.65;;
45806;SDS011;31507;51.494;7.518;2023-04-15T09:35:23;8.10;;;7.30;;
45806;SDS011;31507;51.494;7.518;2023-04-15T09:37:50;10.13;;;8.35;;
45806;SDS011;31507;51.494;7.518;2023-04-15T09:43:02;10.52;;;8.75;;
45806;SDS011;31507;51.494;7.518;2023-04-15T09:45:29;11.80;;;9.82;;
45806;SDS011;31507;51.494;7.518;2023-04-15T09:47:58;11.35;;;9.73;;
45806;SDS011;31507;51.494;7.518;2023-04-15T09:50:40;14.00;;;10.90;;
45806;SDS011;31507;51.494;7.518;2023-04-15T09:53:08;11.63;;;10.48;;
45806;SDS011;31507;51.494;7.518;2023-04-15T09:55:42;16.42;;;13.50;;
45806;SDS011;31507;51.494;7.518;2023-04-15T09:58:29;16.63;;;13.80;;
45806;SDS011;31507;51.494;7.518;2023-04-15T10:00:56;18.80;;;15.40;;
45806;SDS011;31507;51.494;7.518;2023-04-15T10:03:26;16.98;;;15.18;;
45806;SDS011;31507;51.494;7.518;2023-04-15T10:05:58;14.27;;;12.63;;
45806;SDS011;31507;51.494;7.518;2023-04-15T10:08:26;14.63;;;10.85;;
45806;SDS011;31507;51.494;7.518;2023-04-15T10:10:53;15.07;;;12.00;;
45806;SDS011;31507;51.494;7.518;2023-04-15T10:13:23;13.55;;;12.15;;
45806;SDS011;31507;51.494;7.518;2023-04-15T10:15:50;14.90;;;12.13;;
45806;SDS011;31507;51.494;7.518;2023-04-15T10:18:18;16.17;;;11.13;;
45806;SDS011;31507;51.494;7.518;2023-04-15T10:20:46;13.32;;;9.65;;
45806;SDS011;31507;51.494;7.518;2023-04-15T10:23:12;10.73;;;7.75;;
45806;SDS011;31507;51.494;7.518;2023-04-15T10:25:39;8.48;;;7.63;;
45806;SDS011;31507;51.494;7.518;2023-04-15T10:28:06;10.30;;;9.07;;
45806;SDS011;31507;51.494;7.518;2023-04-15T10:30:33;11.07;;;9.70;;
45806;SDS011;31507;51.494;7.518;2023-04-15T10:32:59;14.90;;;11.27;;
45806;SDS011;31507;51.494;7.518;2023-04-15T10:35:27;13.98;;;10.25;;
45806;SDS011;31507;51.494;7.518;2023-04-15T10:37:58;12.45;;;9.88;;
45806;SDS011;31507;51.494;7.518;2023-04-15T10:40:24;12.20;;;10.00;;
45806;SDS011;31507;51.494;7.518;2023-04-15T10:42:55;12.90;;;10.57;;
45806;SDS011;31507;51.494;7.518;2023-04-15T10:45:46;10.95;;;9.73;;
45806;SDS011;31507;51.494;7.518;2023-04-15T10:48:12;12.80;;;10.75;;
45806;SDS011;31507;51.494;7.518;2023-04-15T10:50:41;19.33;;;12.05;;
45806;SDS011;31507;51.494;7.518;2023-04-15T10:53:29;12.45;;;9.40;;
45806;SDS011;31507;51.494;7.518;2023-04-15T10:55:56;13.80;;;10.25;;
45806;SDS011;31507;51.494;7.518;2023-04-15T10:58:23;15.55;;;10.90;;
45806;SDS011;31507;51.494;7.518;2023-04-15T11:00:50;19.25;;;10.85;;
45806;SDS011;31507;51.494;7.518;2023-04-15T11:03:33;16.23;;;9.68;;
45806;SDS011;31507;51.494;7.518;2023-04-15T11:06:03;12.20;;;9.13;;
45806;SDS011;31507;51.494;7.518;2023-04-15T11:14:29;13.68;;;8.63;;
45806;SDS011;31507;51.494;7.518;2023-04-15T11:16:58;11.98;;;9.07;;
45806;SDS011;31507;51.494;7.518;2023-04-15T11:19:24;10.57;;;8.50;;
45806;SDS011;31507;51.494;7.518;2023-04-15T11:21:49;12.77;;;8.77;;
45806;SDS011;31507;51.494;7.518;2023-04-15T11:24:25;11.35;;;9.25;;
45806;SDS011;31507;51.494;7.518;2023-04-15T11:26:55;11.05;;;8.77;;
45806;SDS011;31507;51.494;7.518;2023-04-15T11:29:27;12.07;;;9.38;;
45806;SDS011;31507;51.494;7.518;2023-04-15T11:32:05;14.10;;;8.77;;
45806;SDS011;31507;51.494;7.518;2023-04-15T11:34:33;10.75;;;8.50;;
45806;SDS011;31507;51.494;7.518;2023-04-15T11:37:02;10.02;;;7.93;;
45806;SDS011;31507;51.494;7.518;2023-04-15T11:39:29;12.65;;;8.32;;
45806;SDS011;31507;51.494;7.518;2023-04-15T11:41:54;10.73;;;8.90;;
45806;SDS011;31507;51.494;7.518;2023-04-15T11:44:20;10.82;;;8.60;;
45806;SDS011;31507;51.494;7.518;2023-04-15T11:46:46;11.68;;;8.15;;
45806;SDS011;31507;51.494;7.518;2023-04-15T11:49:24;13.20;;;8.98;;
45806;SDS011;31507;51.494;7.518;2023-04-15T11:51:50;12.93;;;9.88;;
45806;SDS011;31507;51.494;7.518;2023-04-15T11:54:19;14.85;;;9.68;;
45806;SDS011;31507;51.494;7.518;2023-04-15T11:56:48;8.90;;;7.75;;
45806;SDS011;31507;51.494;7.518;2023-04-15T11:59:15;12.02;;;9.32;;
45806;SDS011;31507;51.494;7.518;2023-04-15T12:01:41;11.95;;;8.68;;
45806;SDS011;31507;51.494;7.518;2023-04-15T12:04:11;12.95;;;8.45;;
45806;SDS011;31507;51.494;7.518;2023-04-15T12:06:42;10.15;;;8.32;;
45806;SDS011;31507;51.494;7.518;2023-04-15T12:09:09;12.73;;;9.52;;
45806;SDS011;31507;51.494;7.518;2023-04-15T12:11:43;11.77;;;8.52;;
45806;SDS011;31507;51.494;7.518;2023-04-15T12:16:52;12.48;;;8.55;;
45806;SDS011;31507;51.494;7.518;2023-04-15T12:19:28;10.73;;;8.30;;
45806;SDS011;31507;51.494;7.518;2023-04-15T12:22:13;11.10;;;8.88;;
45806;SDS011;31507;51.494;7.518;2023-04-15T12:24:40;10.10;;;8.00;;
45806;SDS011;31507;51.494;7.518;2023-04-15T12:27:09;9.85;;;8.10;;
45806;SDS011;31507;51.494;7.518;2023-04-15T12:29:36;11.18;;;8.43;;
45806;SDS011;31507;51.494;7.518;2023-04-15T12:34:32;9.45;;;8.07;;
45806;SDS011;31507;51.494;7.518;2023-04-15T12:37:00;12.30;;;7.53;;
45806;SDS011;31507;51.494;7.518;2023-04-15T12:39:28;8.88;;;7.97;;
45806;SDS011;31507;51.494;7.518;2023-04-15T12:41:56;10.23;;;8.13;;
45806;SDS011;31507;51.494;7.518;2023-04-15T12:44:23;12.60;;;9.23;;
45806;SDS011;31507;51.494;7.518;2023-04-15T12:46:49;11.63;;;9.35;;
45806;SDS011;31507;51.494;7.518;2023-04-15T12:49:16;11.43;;;8.93;;
45806;SDS011;31507;51.494;7.518;2023-04-15T12:51:44;11.25;;;8.68;;
45806;SDS011;31507;51.494;7.518;2023-04-15T12:54:13;12.80;;;10.60;;
45806;SDS011;31507;51.494;7.518;2023-04-15T12:56:40;10.25;;;9.10;;
45806;SDS011;31507;51.494;7.518;2023-04-15T12:59:06;8.88;;;7.35;;
45806;SDS011;31507;51.494;7.518;2023-04-15T13:01:31;8.57;;;7.65;;
45806;SDS011;31507;51.494;7.518;2023-04-15T13:03:57;10.82;;;7.65;;
45806;SDS011;31507;51.494;7.518;2023-04-15T13:06:23;9.88;;;8.02;;
45806;SDS011;31507;51.494;7.518;2023-04-15T13:08:48;7.63;;;6.70;;
45806;SDS011;31507;51.494;7.518;2023-04-15T13:11:14;11.57;;;6.50;;
45806;SDS011;31507;51.494;7.518;2023-04-15T13:13:41;8.27;;;7.22;;
45806;SDS011;31507;51.494;7.518;2023-04-15T13:16:07;9.48;;;7.85;;
45806;SDS011;31507;51.494;7.518;2023-04-15T13:18:33;14.35;;;8.82;;
45806;SDS011;31507;51.494;7.518;2023-04-15T13:20:59;9.73;;;8.00;;
45806;SDS011;31507;51.494;7.518;2023-04-15T13:23:26;9.35;;;8.25;;
45806;SDS011;31507;51.494;7.518;2023-04-15T13:25:51;13.05;;;7.93;;
45806;SDS011;31507;51.494;7.518;2023-04-15T13:28:17;9.05;;;7.25;;
45806;SDS011;31507;51.494;7.518;2023-04-15T13:30:42;9.88;;;8.07;;
45806;SDS011;31507;51.494;7.518;2023-04-15T13:33:09;10.40;;;7.70;;
45806;SDS011;31507;51.494;7.518;2023-04-15T13:35:35;10.27;;;7.45;;
45806;SDS011;31507;51.494;7.518;2023-04-15T13:38:01;11.10;;;7.85;;
45806;SDS011;31507;51.494;7.518;2023-04-15T13:40:27;10.23;;;7.68;;
45806;SDS011;31507;51.494;7.518;2023-04-15T13:42:52;12.20;;;8.00;;
45806;SDS011;31507;51.494;7.518;2023-04-15T13:45:18;8.70;;;7.50;;
45806;SDS011;31507;51.494;7.518;2023-04-15T13:47:44;8.23;;;6.40;;
45806;SDS011;31507;51.494;7.518;2023-04-15T13:50:10;9.90;;;6.85;;
45806;SDS011;31507;51.494;7.518;2023-04-15T13:52:35;10.77;;;7.35;;
45806;SDS011;31507;51.494;7.518;2023-04-15T13:55:02;10.18;;;6.75;;
45806;SDS011;31507;51.494;7.518;2023-04-15T13:57:28;8.85;;;7.00;;
45806;SDS011;31507;51.494;7.518;2023-04-15T13:59:53;8.88;;;6.82;;
45806;SDS011;31507;51.494;7.518;2023-04-15T14:02:20;10.30;;;7.45;;
45806;SDS011;31507;51.494;7.518;2023-04-15T14:04:46;9.35;;;6.82;;
45806;SDS011;31507;51.494;7.518;2023-04-15T14:07:12;10.57;;;7.25;;
45806;SDS011;31507;51.494;7.518;2023-04-15T14:09:38;12.48;;;7.68;;
45806;SDS011;31507;51.494;7.518;2023-04-15T14:12:03;9.20;;;7.45;;
45806;SDS011;31507;51.494;7.518;2023-04-15T14:14:29;9.00;;;6.40;;
45806;SDS011;31507;51.494;7.518;2023-04-15T14:16:55;10.05;;;6.43;;
45806;SDS011;31507;51.494;7.518;2023-04-15T14:19:21;7.95;;;6.50;;
45806;SDS011;31507;51.494;7.518;2023-04-15T14:21:48;8.50;;;6.32;;
45806;SDS011;31507;51.494;7.518;2023-04-15T14:24:14;6.70;;;6.00;;
45806;SDS011;31507;51.494;7.518;2023-04-15T14:26:39;10.50;;;6.35;;
45806;SDS011;31507;51.494;7.518;2023-04-15T14:29:07;7.97;;;6.60;;
45806;SDS011;31507;51.494;7.518;2023-04-15T14:31:33;9.52;;;6.45;;
45806;SDS011;31507;51.494;7.518;2023-04-15T14:33:59;8.48;;;5.85;;
45806;SDS011;31507;51.494;7.518;2023-04-15T14:36:25;7.05;;;5.80;;
45806;SDS011;31507;51.494;7.518;2023-04-15T14:38:51;6.20;;;5.03;;
45806;SDS011;31507;51.494;7.518;2023-04-15T14:41:16;5.63;;;5.07;;